createdAt,value
2023-01-23T00:01:35.005Z,9.27
2023-01-23T00:04:05.427Z,9.20
2023-01-23T00:06:33.225Z,8.50
2023-01-23T00:09:01.474Z,8.97
2023-01-23T00:11:30.535Z,9.00
2023-01-23T00:14:00.174Z,8.93
2023-01-23T00:16:31.161Z,8.60
2023-01-23T00:18:59.337Z,8.33
2023-01-23T00:21:29.040Z,8.00
2023-01-23T00:23:58.763Z,8.60
2023-01-23T00:26:29.541Z,8.73
2023-01-23T00:28:57.097Z,8.20
2023-01-23T00:31:43.039Z,8.80
2023-01-23T00:34:14.612Z,8.30
2023-01-23T00:36:44.476Z,8.93
2023-01-23T00:39:20.406Z,8.57
2023-01-23T00:41:49.360Z,8.27
2023-01-23T00:44:17.385Z,8.90
2023-01-23T00:46:45.265Z,7.93
2023-01-23T00:49:12.915Z,8.50
2023-01-23T00:51:40.618Z,7.60
2023-01-23T00:54:08.146Z,8.10
2023-01-23T00:56:35.678Z,8.80
2023-01-23T00:59:03.190Z,8.60
2023-01-23T01:01:32.573Z,8.83
2023-01-23T01:04:00.606Z,8.13
2023-01-23T01:06:30.196Z,8.37
2023-01-23T01:08:59.622Z,8.67
2023-01-23T01:11:27.612Z,9.27
2023-01-23T01:13:55.247Z,8.47
2023-01-23T01:16:24.298Z,8.20
2023-01-23T01:18:52.034Z,8.63
2023-01-23T01:21:20.910Z,8.50
2023-01-23T01:23:48.408Z,9.73
2023-01-23T01:26:15.931Z,12.47
2023-01-23T01:28:43.492Z,14.07
2023-01-23T01:31:16.248Z,8.87
2023-01-23T01:33:44.654Z,8.83
2023-01-23T01:36:19.068Z,9.00
2023-01-23T01:38:48.403Z,8.73
2023-01-23T01:41:17.132Z,8.23
2023-01-23T01:43:45.705Z,8.03
2023-01-23T01:46:28.784Z,8.13
2023-01-23T01:49:10.468Z,8.00
2023-01-23T01:52:05.172Z,8.35
2023-01-23T01:54:38.931Z,9.47
2023-01-23T01:57:21.710Z,8.32
2023-01-23T02:00:10.420Z,7.77
2023-01-23T02:03:01.337Z,8.90
2023-01-23T02:05:37.970Z,8.43
2023-01-23T02:08:30.127Z,8.03
2023-01-23T02:11:00.663Z,8.03
2023-01-23T02:13:39.218Z,7.80
2023-01-23T02:16:11.407Z,6.97
2023-01-23T02:18:44.570Z,6.90
2023-01-23T02:21:13.922Z,6.87
2023-01-23T02:23:53.070Z,7.53
2023-01-23T02:26:36.504Z,7.43
2023-01-23T02:29:06.022Z,6.73
2023-01-23T02:31:44.214Z,6.80
2023-01-23T02:34:14.553Z,7.47
2023-01-23T02:36:48.044Z,6.03
2023-01-23T02:39:20.479Z,7.70
2023-01-23T02:41:56.042Z,6.57
2023-01-23T02:44:32.854Z,6.47
2023-01-23T02:47:12.400Z,6.97
2023-01-23T02:49:42.621Z,6.83
2023-01-23T02:52:10.807Z,6.40
2023-01-23T02:54:40.319Z,7.03
2023-01-23T02:57:09.109Z,6.77
2023-01-23T02:59:55.665Z,7.27
2023-01-23T03:02:24.605Z,6.33
2023-01-23T03:04:52.300Z,7.43
2023-01-23T03:07:20.864Z,6.70
2023-01-23T03:09:48.850Z,6.50
2023-01-23T03:12:16.666Z,6.77
2023-01-23T03:14:44.388Z,6.17
2023-01-23T03:17:14.979Z,6.27
2023-01-23T03:19:43.193Z,7.87
2023-01-23T03:22:11.036Z,6.83
2023-01-23T03:24:40.208Z,7.17
2023-01-23T03:27:08.283Z,7.97
2023-01-23T03:30:02.538Z,6.93
2023-01-23T03:32:30.858Z,7.27
2023-01-23T03:34:59.418Z,7.93
2023-01-23T03:37:27.251Z,7.67
2023-01-23T03:40:14.531Z,7.63
2023-01-23T03:42:42.401Z,8.20
2023-01-23T03:45:13.217Z,6.73
2023-01-23T03:47:42.382Z,7.30
2023-01-23T03:50:10.602Z,7.37
2023-01-23T03:52:40.234Z,7.13
2023-01-23T03:55:09.149Z,7.53
2023-01-23T03:57:37.836Z,7.73
2023-01-23T04:00:18.111Z,7.43
2023-01-23T04:02:53.715Z,8.37
2023-01-23T04:05:21.638Z,8.97
2023-01-23T04:07:49.962Z,8.50
2023-01-23T04:10:18.249Z,8.47
2023-01-23T04:12:51.043Z,8.23
2023-01-23T04:15:19.375Z,8.13
2023-01-23T04:17:47.215Z,8.07
2023-01-23T04:20:15.413Z,9.73
2023-01-23T04:22:44.948Z,8.77
2023-01-23T04:25:12.653Z,7.80
2023-01-23T04:27:40.616Z,9.00
2023-01-23T04:30:11.105Z,8.57
2023-01-23T04:32:38.829Z,8.23
2023-01-23T04:35:07.761Z,9.27
2023-01-23T04:37:38.948Z,7.80
2023-01-23T04:40:10.270Z,9.73
2023-01-23T04:42:50.119Z,8.07
2023-01-23T04:48:34.045Z,7.53
2023-01-23T04:51:01.975Z,7.97
2023-01-23T04:53:29.721Z,8.60
2023-01-23T04:56:01.411Z,7.73
2023-01-23T04:58:29.979Z,8.63
2023-01-23T05:01:06.970Z,9.13
2023-01-23T05:03:37.312Z,8.73
2023-01-23T05:06:05.620Z,8.37
2023-01-23T05:08:33.824Z,8.07
2023-01-23T05:11:17.982Z,8.98
2023-01-23T05:13:46.064Z,8.13
2023-01-23T05:16:14.904Z,7.90
2023-01-23T05:19:01.190Z,8.83
2023-01-23T05:21:32.674Z,9.17
2023-01-23T05:24:00.475Z,8.20
2023-01-23T05:26:28.612Z,9.07
2023-01-23T05:28:57.360Z,8.57
2023-01-23T05:31:26.843Z,8.97
2023-01-23T05:34:14.521Z,9.47
2023-01-23T05:36:42.867Z,9.43
2023-01-23T05:39:10.683Z,9.07
2023-01-23T05:41:38.411Z,7.47
2023-01-23T05:44:31.460Z,9.40
2023-01-23T05:47:06.492Z,9.97
2023-01-23T05:49:34.815Z,10.20
2023-01-23T05:52:03.022Z,8.60
2023-01-23T05:54:33.140Z,11.23
2023-01-23T05:57:01.341Z,11.17
2023-01-23T05:59:47.545Z,11.10
2023-01-23T06:02:38.944Z,10.63
2023-01-23T06:05:26.317Z,11.07
2023-01-23T06:08:02.074Z,11.93
2023-01-23T06:10:30.756Z,12.30
2023-01-23T06:12:58.476Z,11.93
2023-01-23T06:15:26.199Z,13.80
2023-01-23T06:17:56.144Z,15.17
2023-01-23T06:20:25.724Z,11.67
2023-01-23T06:22:53.445Z,13.63
2023-01-23T06:25:22.132Z,13.33
2023-01-23T06:27:50.454Z,14.90
2023-01-23T06:30:19.107Z,12.00
2023-01-23T06:32:48.544Z,13.70
2023-01-23T06:35:20.972Z,12.80
2023-01-23T06:37:49.023Z,13.00
2023-01-23T06:40:19.929Z,12.90
2023-01-23T06:42:58.871Z,12.67
2023-01-23T06:45:27.436Z,13.70
2023-01-23T06:47:55.153Z,12.53
2023-01-23T06:50:23.840Z,11.50
2023-01-23T06:52:51.564Z,12.00
2023-01-23T06:55:21.213Z,12.80
2023-01-23T06:57:49.298Z,11.90
2023-01-23T07:00:18.970Z,13.20
2023-01-23T07:02:47.168Z,12.50
2023-01-23T07:05:15.210Z,12.40
2023-01-23T07:07:46.650Z,10.13
2023-01-23T07:10:14.619Z,9.00
2023-01-23T07:12:42.454Z,10.90
2023-01-23T07:15:11.621Z,10.73
2023-01-23T07:17:41.498Z,9.40
2023-01-23T07:20:10.665Z,10.00
2023-01-23T07:25:10.917Z,10.20
2023-01-23T07:27:38.748Z,10.20
2023-01-23T07:30:07.433Z,10.37
2023-01-23T07:32:35.278Z,10.20
2023-01-23T07:35:03.243Z,9.47
2023-01-23T07:37:30.959Z,10.13
2023-01-23T07:39:58.816Z,11.50
2023-01-23T07:42:26.649Z,11.33
2023-01-23T07:44:54.364Z,10.80
2023-01-23T07:47:22.210Z,10.70
2023-01-23T07:49:49.929Z,11.13
2023-01-23T07:52:17.653Z,11.87
2023-01-23T07:54:45.375Z,10.80
2023-01-23T07:57:13.220Z,11.43
2023-01-23T07:59:41.077Z,10.00
2023-01-23T08:02:11.073Z,10.10
2023-01-23T08:04:38.914Z,10.37
2023-01-23T08:07:06.749Z,10.17
2023-01-23T08:09:34.497Z,11.47
2023-01-23T08:12:02.310Z,11.93
2023-01-23T08:14:30.151Z,12.17
2023-01-23T08:16:58.131Z,11.00
2023-01-23T08:19:27.277Z,11.23
2023-01-23T08:21:55.122Z,11.90
2023-01-23T08:24:22.840Z,10.63
2023-01-23T08:26:50.570Z,12.50
2023-01-23T08:29:18.404Z,12.40
2023-01-23T08:31:46.207Z,14.90
2023-01-23T08:34:13.852Z,16.47
2023-01-23T08:36:42.052Z,14.03
2023-01-23T08:39:09.775Z,12.80
2023-01-23T08:41:37.511Z,12.90
2023-01-23T08:44:05.470Z,13.07
2023-01-23T08:46:33.185Z,12.33
2023-01-23T08:49:00.906Z,12.87
2023-01-23T08:51:28.771Z,11.83
2023-01-23T08:53:56.593Z,10.57
2023-01-23T08:56:24.672Z,10.53
2023-01-23T08:58:52.753Z,11.00
2023-01-23T09:01:23.995Z,11.23
2023-01-23T09:04:05.360Z,11.10
2023-01-23T09:06:33.098Z,11.03
2023-01-23T09:09:00.813Z,10.63
2023-01-23T09:11:28.528Z,9.77
2023-01-23T09:13:56.384Z,10.20
2023-01-23T09:16:24.280Z,11.60
2023-01-23T09:18:51.954Z,11.57
2023-01-23T09:21:19.677Z,11.73
2023-01-23T09:23:47.377Z,9.70
2023-01-23T09:26:16.162Z,10.07
2023-01-23T09:28:44.509Z,11.50
2023-01-23T09:31:14.075Z,12.70
2023-01-23T09:33:42.467Z,12.70
2023-01-23T09:36:10.685Z,12.67
2023-01-23T09:38:38.640Z,11.63
2023-01-23T09:41:28.555Z,12.30
2023-01-23T09:44:07.800Z,11.13
2023-01-23T09:46:57.851Z,10.23
2023-01-23T09:50:00.388Z,10.10
2023-01-23T09:52:45.962Z,10.73
2023-01-23T09:55:33.370Z,14.93
2023-01-23T09:58:03.498Z,18.53
2023-01-23T10:00:33.857Z,20.70
2023-01-23T10:03:11.415Z,14.83
2023-01-23T10:06:00.988Z,14.63
2023-01-23T10:08:47.061Z,13.07
2023-01-23T10:11:27.021Z,11.87
2023-01-23T10:14:29.905Z,13.83
2023-01-23T10:17:10.490Z,14.37
2023-01-23T10:20:33.033Z,11.53
2023-01-23T10:23:31.008Z,14.83
2023-01-23T10:26:02.915Z,14.00
2023-01-23T10:28:39.455Z,16.73
2023-01-23T10:31:44.290Z,14.80
2023-01-23T10:34:25.488Z,17.10
2023-01-23T10:37:37.965Z,16.83
2023-01-23T10:40:37.856Z,13.50
2023-01-23T10:43:19.386Z,14.33
2023-01-23T10:45:49.708Z,13.37
2023-01-23T10:48:32.456Z,13.03
2023-01-23T10:51:00.891Z,12.93
2023-01-23T10:53:28.626Z,17.87
2023-01-23T10:56:00.805Z,14.23
2023-01-23T10:58:39.569Z,13.17
2023-01-23T11:01:25.306Z,12.23
2023-01-23T11:03:53.354Z,11.83
2023-01-23T11:06:25.926Z,10.27
2023-01-23T11:09:04.038Z,9.97
2023-01-23T11:11:34.528Z,9.80
2023-01-23T11:14:21.692Z,9.80
2023-01-23T11:17:34.886Z,10.33
2023-01-23T11:20:25.169Z,9.10
2023-01-23T11:23:16.315Z,9.10
2023-01-23T11:25:48.693Z,9.97
2023-01-23T11:28:50.980Z,12.23
2023-01-23T11:31:23.918Z,17.87
2023-01-23T11:34:11.500Z,12.53
2023-01-23T11:37:10.195Z,9.33
2023-01-23T11:39:43.086Z,9.90
2023-01-23T11:42:13.669Z,8.80
2023-01-23T11:44:46.367Z,7.83
2023-01-23T11:47:48.023Z,9.32
2023-01-23T11:51:06.300Z,9.67
2023-01-23T11:53:59.921Z,10.53
2023-01-23T11:56:59.523Z,11.27
2023-01-23T11:59:40.567Z,13.97
2023-01-23T12:02:59.905Z,12.47
2023-01-23T12:06:18.791Z,16.20
2023-01-23T12:09:11.184Z,12.87
2023-01-23T12:12:08.548Z,11.10
2023-01-23T12:15:13.221Z,14.13
2023-01-23T12:18:12.885Z,13.93
2023-01-23T12:20:52.641Z,13.67
2023-01-23T12:23:52.593Z,12.53
2023-01-23T12:26:22.678Z,11.93
2023-01-23T12:29:44.674Z,11.33
2023-01-23T12:32:21.170Z,10.57
2023-01-23T12:35:19.724Z,11.20
2023-01-23T12:38:11.697Z,11.53
2023-01-23T12:41:09.558Z,9.70
2023-01-23T12:43:54.994Z,12.47
2023-01-23T12:46:34.052Z,8.77
2023-01-23T12:49:44.936Z,8.30
2023-01-23T12:52:51.897Z,10.70
2023-01-23T12:55:23.734Z,8.37
2023-01-23T12:58:08.172Z,8.67
2023-01-23T13:01:20.431Z,9.47
2023-01-23T13:03:56.948Z,9.63
2023-01-23T13:06:27.102Z,9.87
2023-01-23T13:09:17.007Z,9.50
2023-01-23T13:12:22.592Z,8.40
2023-01-23T13:15:14.855Z,10.82
2023-01-23T13:17:57.831Z,10.50
2023-01-23T13:20:48.317Z,10.83
2023-01-23T13:23:32.732Z,9.43
2023-01-23T13:26:15.107Z,9.73
2023-01-23T13:28:56.134Z,8.40
2023-01-23T13:31:42.519Z,9.60
2023-01-23T13:34:16.540Z,10.63
2023-01-23T13:39:29.739Z,10.70
2023-01-23T13:42:13.678Z,10.83
2023-01-23T13:45:16.812Z,11.02
2023-01-23T14:20:40.218Z,10.93
2023-01-23T14:23:30.993Z,9.10
2023-01-23T14:25:58.849Z,8.33
2023-01-23T14:28:27.758Z,8.70
2023-01-23T14:31:07.880Z,8.50
2023-01-23T14:33:49.622Z,11.07
2023-01-23T14:36:19.741Z,10.23
2023-01-23T14:38:50.086Z,10.13
2023-01-23T14:41:20.834Z,8.13
2023-01-23T14:43:53.083Z,9.70
2023-01-23T14:46:33.889Z,9.30
2023-01-23T14:49:05.094Z,10.43
2023-01-23T14:51:32.934Z,8.77
2023-01-23T14:54:10.248Z,9.00
2023-01-23T14:56:40.019Z,8.57
2023-01-23T14:59:35.112Z,9.93
2023-01-23T15:02:33.807Z,9.23
2023-01-23T15:05:16.504Z,8.77
2023-01-23T15:07:56.978Z,11.97
2023-01-23T15:10:48.311Z,11.00
2023-01-23T15:13:36.938Z,20.47
2023-01-23T15:16:12.440Z,14.83
2023-01-23T15:18:55.645Z,13.13
2023-01-23T15:21:30.322Z,11.20
2023-01-23T15:24:06.502Z,12.83
2023-01-23T15:26:37.415Z,16.43
2023-01-23T15:29:10.910Z,15.27
2023-01-23T15:31:39.163Z,10.95
2023-01-23T15:34:16.392Z,9.27
2023-01-23T15:37:00.339Z,10.80
2023-01-23T15:39:38.273Z,10.13
2023-01-23T15:42:28.426Z,10.13
2023-01-23T15:45:00.965Z,10.83
2023-01-23T15:47:32.393Z,10.77
2023-01-23T15:50:01.719Z,12.10
2023-01-23T15:52:46.106Z,12.57
2023-01-23T15:57:43.241Z,13.43
2023-01-23T16:00:27.053Z,12.50
2023-01-23T16:02:57.888Z,10.70
2023-01-23T16:05:30.013Z,10.70
2023-01-23T16:08:01.163Z,11.23
2023-01-23T16:10:35.647Z,13.53
2023-01-23T16:13:03.734Z,13.03
2023-01-23T16:15:34.466Z,11.00
2023-01-23T16:18:04.538Z,10.80
2023-01-23T16:20:41.307Z,10.73
2023-01-23T16:23:24.934Z,11.57
2023-01-23T16:25:53.334Z,12.02
2023-01-23T16:28:26.066Z,10.90
2023-01-23T16:30:53.912Z,11.40
2023-01-23T16:33:22.116Z,9.33
2023-01-23T16:35:53.204Z,11.10
2023-01-23T16:38:29.322Z,11.40
2023-01-23T16:41:00.048Z,11.00
2023-01-23T16:43:28.240Z,11.77
2023-01-23T16:45:57.659Z,13.60
2023-01-23T16:48:28.044Z,20.60
2023-01-23T16:51:23.572Z,12.73
2023-01-23T16:54:02.305Z,12.50
2023-01-23T16:56:39.055Z,10.83
2023-01-23T16:59:19.145Z,12.37
2023-01-23T17:01:50.861Z,11.33
2023-01-23T17:04:21.311Z,11.23
2023-01-23T17:06:49.869Z,11.90
2023-01-23T17:09:17.744Z,10.43
2023-01-23T17:12:05.466Z,11.60
2023-01-23T17:14:34.520Z,9.90
2023-01-23T17:17:14.355Z,10.90
2023-01-23T17:19:43.657Z,9.97
2023-01-23T17:22:27.803Z,10.27
2023-01-23T17:24:55.760Z,9.15
2023-01-23T17:27:23.603Z,11.23
2023-01-23T17:29:51.446Z,11.37
2023-01-23T17:32:32.992Z,13.07
2023-01-23T17:35:03.456Z,11.83
2023-01-23T17:37:31.297Z,11.10
2023-01-23T17:39:59.134Z,12.00
2023-01-23T17:42:27.472Z,12.60
2023-01-23T17:44:55.539Z,10.97
2023-01-23T17:47:23.272Z,11.33
2023-01-23T17:49:54.829Z,12.47
2023-01-23T17:52:24.904Z,12.93
2023-01-23T17:54:54.457Z,10.80
2023-01-23T17:57:22.791Z,11.83
2023-01-23T17:59:50.636Z,9.77
2023-01-23T18:02:28.323Z,12.43
2023-01-23T18:04:56.416Z,11.23
2023-01-23T18:07:24.375Z,11.43
2023-01-23T18:09:54.011Z,10.13
2023-01-23T18:12:53.537Z,10.47
2023-01-23T18:16:02.287Z,9.83
2023-01-23T18:18:37.232Z,10.43
2023-01-23T18:21:13.332Z,9.20
2023-01-23T18:23:41.563Z,8.63
2023-01-23T18:26:33.020Z,9.80
2023-01-23T18:29:09.501Z,10.60
2023-01-23T18:32:04.650Z,10.23
2023-01-23T18:34:53.309Z,10.07
2023-01-23T18:37:32.803Z,10.17
2023-01-23T18:40:55.712Z,12.17
2023-01-23T18:43:44.458Z,10.53
2023-01-23T18:46:27.799Z,9.90
2023-01-23T18:48:55.864Z,9.60
2023-01-23T18:51:49.730Z,10.07
2023-01-23T18:54:59.711Z,10.57
2023-01-23T18:57:52.847Z,11.37
2023-01-23T19:00:40.407Z,11.67
2023-01-23T19:03:16.516Z,9.20
2023-01-23T19:05:45.897Z,8.77
2023-01-23T19:08:32.461Z,9.37
2023-01-23T19:11:24.424Z,9.17
2023-01-23T19:14:38.232Z,10.73
2023-01-23T19:17:29.705Z,10.70
2023-01-23T19:20:28.155Z,9.47
2023-01-23T19:23:21.671Z,7.37
2023-01-23T19:25:49.633Z,7.53
2023-01-23T19:28:17.605Z,8.60
2023-01-23T19:30:46.001Z,8.33
2023-01-23T19:33:20.723Z,7.83
2023-01-23T19:35:49.287Z,10.00
2023-01-23T19:38:17.018Z,7.93
2023-01-23T19:40:45.812Z,7.60
2023-01-23T19:43:16.848Z,9.17
2023-01-23T19:45:45.481Z,8.17
2023-01-23T19:48:14.527Z,8.60
2023-01-23T19:50:42.338Z,9.63
2023-01-23T19:53:14.146Z,8.60
2023-01-23T19:55:42.000Z,8.07
2023-01-23T19:58:09.706Z,8.30
2023-01-23T20:00:37.562Z,8.90
2023-01-23T20:03:05.417Z,8.87
2023-01-23T20:05:33.232Z,9.73
2023-01-23T20:08:01.119Z,9.17
2023-01-23T20:10:29.046Z,9.37
2023-01-23T20:12:56.851Z,8.87
2023-01-23T20:15:27.487Z,8.63
2023-01-23T20:17:55.454Z,8.80
2023-01-23T20:20:23.640Z,9.50
2023-01-23T20:22:51.731Z,8.77
2023-01-23T20:25:19.964Z,9.27
2023-01-23T20:27:47.896Z,8.33
2023-01-23T20:30:20.293Z,9.00
2023-01-23T20:32:48.141Z,8.87
2023-01-23T20:35:16.117Z,8.97
2023-01-23T20:37:43.943Z,10.50
2023-01-23T20:40:12.027Z,8.73
2023-01-23T20:42:41.926Z,8.77
2023-01-23T20:45:10.121Z,8.73
2023-01-23T20:47:38.720Z,8.57
2023-01-23T20:50:06.874Z,8.27
2023-01-23T20:52:53.215Z,8.60
2023-01-23T20:55:21.350Z,9.30
2023-01-23T20:58:07.974Z,9.80
2023-01-23T21:00:35.811Z,9.53
2023-01-23T21:03:03.697Z,10.33
2023-01-23T21:05:31.507Z,9.07
2023-01-23T21:07:59.332Z,9.77
2023-01-23T21:10:27.293Z,10.27
2023-01-23T21:12:55.137Z,10.53
2023-01-23T21:15:23.328Z,10.50
2023-01-23T21:17:51.306Z,11.50
2023-01-23T21:20:19.029Z,11.93
2023-01-23T21:22:46.752Z,10.33
2023-01-23T21:25:14.592Z,11.20
2023-01-23T21:27:42.325Z,9.53
2023-01-23T21:30:10.994Z,10.80
2023-01-23T21:32:38.718Z,10.13
2023-01-23T21:35:06.802Z,9.70
2023-01-23T21:37:34.642Z,11.20
2023-01-23T21:40:02.488Z,9.60
2023-01-23T21:42:30.333Z,10.67
2023-01-23T21:44:58.089Z,10.03
2023-01-23T21:47:25.775Z,9.33
2023-01-23T21:49:53.496Z,9.67
2023-01-23T21:52:21.348Z,11.00
2023-01-23T21:54:49.179Z,10.10
2023-01-23T21:57:16.899Z,9.70
2023-01-23T22:00:04.543Z,10.60
2023-01-23T22:02:39.735Z,10.70
2023-01-23T22:05:08.192Z,9.70
2023-01-23T22:07:35.989Z,10.10
2023-01-23T22:10:04.560Z,8.97
2023-01-23T22:12:32.281Z,10.43
2023-01-23T22:15:00.140Z,10.83
2023-01-23T22:17:27.958Z,11.80
2023-01-23T22:19:55.804Z,10.00
2023-01-23T22:22:23.528Z,12.97
2023-01-23T22:24:51.365Z,10.10
2023-01-23T22:27:19.119Z,11.50
2023-01-23T22:29:46.812Z,9.93
2023-01-23T22:32:14.682Z,10.63
2023-01-23T22:34:42.508Z,9.20
2023-01-23T22:37:10.222Z,11.73
2023-01-23T22:39:38.223Z,12.33
2023-01-23T22:42:06.027Z,12.40
2023-01-23T22:44:33.871Z,11.00
2023-01-23T22:47:01.692Z,10.83
2023-01-23T22:49:29.434Z,11.20
2023-01-23T22:51:57.273Z,11.27
2023-01-23T22:54:25.238Z,10.17
2023-01-23T22:56:52.965Z,12.10
2023-01-23T22:59:20.797Z,11.70
2023-01-23T23:01:48.523Z,11.03
2023-01-23T23:04:16.368Z,11.23
2023-01-23T23:06:44.111Z,11.33
2023-01-23T23:09:11.930Z,12.03
2023-01-23T23:11:40.014Z,11.07
2023-01-23T23:14:09.536Z,11.00
2023-01-23T23:16:37.255Z,11.23
2023-01-23T23:19:05.344Z,13.63
2023-01-23T23:21:36.186Z,12.80
2023-01-23T23:24:07.805Z,12.07
2023-01-23T23:26:35.957Z,10.53
2023-01-23T23:29:04.886Z,11.53
2023-01-23T23:31:33.482Z,11.90
2023-01-23T23:34:01.994Z,10.50
2023-01-23T23:36:29.849Z,11.90
2023-01-23T23:38:57.684Z,13.17
2023-01-23T23:41:25.883Z,11.50
2023-01-23T23:43:53.599Z,12.70
2023-01-23T23:46:21.449Z,12.27
2023-01-23T23:48:49.172Z,11.43
2023-01-23T23:51:19.070Z,11.80
2023-01-23T23:53:48.584Z,11.93
2023-01-23T23:56:23.011Z,12.63
2023-01-23T23:58:51.097Z,11.57
